sensor_id;sensor_type;location;lat;lon;timestamp;P1;durP1;ratioP1;P2;durP2;ratioP2
43998;SDS011;51319;52.162;5.302;2023-03-04T00:00:08;18.70;;;3.50;;
43998;SDS011;51319;52.162;5.302;2023-03-04T00:02:36;13.88;;;2.35;;
43998;SDS011;51319;52.162;5.302;2023-03-04T00:05:03;25.33;;;3.15;;
43998;SDS011;51319;52.162;5.302;2023-03-04T00:07:30;21.02;;;4.20;;
43998;SDS011;51319;52.162;5.302;2023-03-04T00:09:57;24.13;;;3.65;;
43998;SDS011;51319;52.162;5.302;2023-03-04T00:12:23;22.95;;;3.08;;
43998;SDS011;51319;52.162;5.302;2023-03-04T00:14:50;17.48;;;2.70;;
43998;SDS011;51319;52.162;5.302;2023-03-04T00:17:17;18.17;;;3.42;;
43998;SDS011;51319;52.162;5.302;2023-03-04T00:19:44;30.42;;;3.83;;
43998;SDS011;51319;52.162;5.302;2023-03-04T00:22:10;20.52;;;2.90;;
43998;SDS011;51319;52.162;5.302;2023-03-04T00:24:37;19.25;;;3.72;;
43998;SDS011;51319;52.162;5.302;2023-03-04T00:27:04;23.55;;;3.42;;
43998;SDS011;51319;52.162;5.302;2023-03-04T00:29:31;15.60;;;2.72;;
43998;SDS011;51319;52.162;5.302;2023-03-04T00:31:58;22.73;;;3.20;;
43998;SDS011;51319;52.162;5.302;2023-03-04T00:34:25;19.77;;;3.03;;
43998;SDS011;51319;52.162;5.302;2023-03-04T00:36:52;20.65;;;3.35;;
43998;SDS011;51319;52.162;5.302;2023-03-04T00:39:18;11.00;;;2.08;;
43998;SDS011;51319;52.162;5.302;2023-03-04T00:41:45;19.20;;;2.60;;
43998;SDS011;51319;52.162;5.302;2023-03-04T00:44:12;22.48;;;3.30;;
43998;SDS011;51319;52.162;5.302;2023-03-04T00:46:39;23.13;;;3.20;;
43998;SDS011;51319;52.162;5.302;2023-03-04T00:49:06;19.05;;;2.38;;
43998;SDS011;51319;52.162;5.302;2023-03-04T00:51:33;18.25;;;2.38;;
43998;SDS011;51319;52.162;5.302;2023-03-04T00:53:59;19.60;;;3.55;;
43998;SDS011;51319;52.162;5.302;2023-03-04T00:56:28;18.48;;;2.47;;
43998;SDS011;51319;52.162;5.302;2023-03-04T00:58:54;18.40;;;3.05;;
43998;SDS011;51319;52.162;5.302;2023-03-04T01:01:21;29.88;;;3.15;;
43998;SDS011;51319;52.162;5.302;2023-03-04T01:03:48;22.35;;;2.83;;
43998;SDS011;51319;52.162;5.302;2023-03-04T01:06:15;24.52;;;4.20;;
43998;SDS011;51319;52.162;5.302;2023-03-04T01:08:42;24.38;;;4.75;;
43998;SDS011;51319;52.162;5.302;2023-03-04T01:11:09;25.08;;;2.70;;
43998;SDS011;51319;52.162;5.302;2023-03-04T01:13:36;19.90;;;3.47;;
43998;SDS011;51319;52.162;5.302;2023-03-04T01:16:03;19.25;;;2.45;;
43998;SDS011;51319;52.162;5.302;2023-03-04T01:18:30;19.73;;;2.83;;
43998;SDS011;51319;52.162;5.302;2023-03-04T01:20:58;26.30;;;3.60;;
43998;SDS011;51319;52.162;5.302;2023-03-04T01:23:25;34.88;;;3.33;;
43998;SDS011;51319;52.162;5.302;2023-03-04T01:25:53;18.35;;;2.78;;
43998;SDS011;51319;52.162;5.302;2023-03-04T01:28:19;21.55;;;2.58;;
43998;SDS011;51319;52.162;5.302;2023-03-04T01:30:46;20.60;;;3.17;;
43998;SDS011;51319;52.162;5.302;2023-03-04T01:33:13;15.30;;;2.83;;
43998;SDS011;51319;52.162;5.302;2023-03-04T01:35:40;26.48;;;3.45;;
43998;SDS011;51319;52.162;5.302;2023-03-04T01:38:07;15.93;;;2.55;;
43998;SDS011;51319;52.162;5.302;2023-03-04T01:40:34;23.48;;;3.17;;
43998;SDS011;51319;52.162;5.302;2023-03-04T01:43:03;20.33;;;2.35;;
43998;SDS011;51319;52.162;5.302;2023-03-04T01:45:30;18.85;;;2.30;;
43998;SDS011;51319;52.162;5.302;2023-03-04T01:47:58;18.45;;;2.80;;
43998;SDS011;51319;52.162;5.302;2023-03-04T01:50:32;27.13;;;3.00;;
43998;SDS011;51319;52.162;5.302;2023-03-04T01:53:01;16.05;;;2.28;;
43998;SDS011;51319;52.162;5.302;2023-03-04T01:55:29;24.33;;;3.00;;
43998;SDS011;51319;52.162;5.302;2023-03-04T01:57:56;22.42;;;2.55;;
43998;SDS011;51319;52.162;5.302;2023-03-04T02:00:30;19.90;;;2.58;;
43998;SDS011;51319;52.162;5.302;2023-03-04T02:03:00;14.77;;;3.05;;
43998;SDS011;51319;52.162;5.302;2023-03-04T02:05:32;18.55;;;2.90;;
43998;SDS011;51319;52.162;5.302;2023-03-04T02:08:01;22.13;;;3.13;;
43998;SDS011;51319;52.162;5.302;2023-03-04T02:10:29;24.13;;;2.70;;
43998;SDS011;51319;52.162;5.302;2023-03-04T02:12:57;13.40;;;2.40;;
43998;SDS011;51319;52.162;5.302;2023-03-04T02:15:25;18.63;;;3.00;;
43998;SDS011;51319;52.162;5.302;2023-03-04T02:17:53;19.77;;;2.63;;
43998;SDS011;51319;52.162;5.302;2023-03-04T02:28:41;15.65;;;2.30;;
43998;SDS011;51319;52.162;5.302;2023-03-04T02:31:31;24.52;;;2.42;;
43998;SDS011;51319;52.162;5.302;2023-03-04T02:34:20;18.45;;;2.55;;
43998;SDS011;51319;52.162;5.302;2023-03-04T02:36:53;23.13;;;2.60;;
43998;SDS011;51319;52.162;5.302;2023-03-04T02:39:24;22.42;;;3.03;;
43998;SDS011;51319;52.162;5.302;2023-03-04T02:41:57;21.35;;;2.65;;
43998;SDS011;51319;52.162;5.302;2023-03-04T02:44:26;20.58;;;3.10;;
43998;SDS011;51319;52.162;5.302;2023-03-04T02:46:55;15.80;;;2.35;;
43998;SDS011;51319;52.162;5.302;2023-03-04T02:49:23;13.75;;;2.95;;
43998;SDS011;51319;52.162;5.302;2023-03-04T02:51:58;15.63;;;2.58;;
43998;SDS011;51319;52.162;5.302;2023-03-04T02:54:25;13.27;;;2.13;;
43998;SDS011;51319;52.162;5.302;2023-03-04T02:56:53;16.05;;;2.92;;
43998;SDS011;51319;52.162;5.302;2023-03-04T02:59:22;20.38;;;2.88;;
43998;SDS011;51319;52.162;5.302;2023-03-04T03:01:49;16.30;;;2.78;;
43998;SDS011;51319;52.162;5.302;2023-03-04T03:04:17;14.48;;;2.90;;
43998;SDS011;51319;52.162;5.302;2023-03-04T03:06:45;15.43;;;2.60;;
43998;SDS011;51319;52.162;5.302;2023-03-04T03:09:12;18.77;;;2.75;;
43998;SDS011;51319;52.162;5.302;2023-03-04T03:11:39;19.38;;;3.05;;
43998;SDS011;51319;52.162;5.302;2023-03-04T03:14:06;19.83;;;2.92;;
43998;SDS011;51319;52.162;5.302;2023-03-04T03:16:33;21.15;;;3.33;;
43998;SDS011;51319;52.162;5.302;2023-03-04T03:19:00;16.08;;;2.25;;
43998;SDS011;51319;52.162;5.302;2023-03-04T03:21:27;22.80;;;2.60;;
43998;SDS011;51319;52.162;5.302;2023-03-04T03:23:54;16.95;;;2.05;;
43998;SDS011;51319;52.162;5.302;2023-03-04T03:26:21;18.98;;;2.30;;
43998;SDS011;51319;52.162;5.302;2023-03-04T03:28:48;14.48;;;1.98;;
43998;SDS011;51319;52.162;5.302;2023-03-04T03:31:14;11.60;;;2.13;;
43998;SDS011;51319;52.162;5.302;2023-03-04T03:33:41;21.38;;;2.40;;
43998;SDS011;51319;52.162;5.302;2023-03-04T03:36:09;14.57;;;1.80;;
43998;SDS011;51319;52.162;5.302;2023-03-04T03:38:35;15.68;;;3.00;;
43998;SDS011;51319;52.162;5.302;2023-03-04T03:41:03;14.02;;;1.95;;
43998;SDS011;51319;52.162;5.302;2023-03-04T03:43:30;11.38;;;2.20;;
43998;SDS011;51319;52.162;5.302;2023-03-04T03:45:56;20.55;;;3.47;;
43998;SDS011;51319;52.162;5.302;2023-03-04T03:48:23;17.55;;;2.17;;
43998;SDS011;51319;52.162;5.302;2023-03-04T03:50:50;19.45;;;3.92;;
43998;SDS011;51319;52.162;5.302;2023-03-04T03:53:17;16.45;;;2.25;;
43998;SDS011;51319;52.162;5.302;2023-03-04T03:55:44;20.73;;;1.67;;
43998;SDS011;51319;52.162;5.302;2023-03-04T03:58:11;10.15;;;2.25;;
43998;SDS011;51319;52.162;5.302;2023-03-04T04:00:38;15.45;;;2.15;;
43998;SDS011;51319;52.162;5.302;2023-03-04T04:03:05;17.13;;;1.95;;
43998;SDS011;51319;52.162;5.302;2023-03-04T04:05:32;18.80;;;2.03;;
43998;SDS011;51319;52.162;5.302;2023-03-04T04:07:59;10.32;;;1.85;;
43998;SDS011;51319;52.162;5.302;2023-03-04T04:10:25;14.52;;;1.88;;
43998;SDS011;51319;52.162;5.302;2023-03-04T04:12:52;16.15;;;2.78;;
43998;SDS011;51319;52.162;5.302;2023-03-04T04:15:19;9.40;;;2.45;;
43998;SDS011;51319;52.162;5.302;2023-03-04T04:17:46;12.57;;;2.08;;
43998;SDS011;51319;52.162;5.302;2023-03-04T04:20:13;7.50;;;1.60;;
43998;SDS011;51319;52.162;5.302;2023-03-04T04:22:39;9.40;;;1.98;;
43998;SDS011;51319;52.162;5.302;2023-03-04T04:25:06;6.68;;;1.25;;
43998;SDS011;51319;52.162;5.302;2023-03-04T04:27:35;14.73;;;2.20;;
43998;SDS011;51319;52.162;5.302;2023-03-04T04:30:03;14.63;;;1.75;;
43998;SDS011;51319;52.162;5.302;2023-03-04T04:32:30;12.48;;;1.63;;
43998;SDS011;51319;52.162;5.302;2023-03-04T04:34:57;9.02;;;1.42;;
43998;SDS011;51319;52.162;5.302;2023-03-04T04:37:24;7.50;;;1.70;;
43998;SDS011;51319;52.162;5.302;2023-03-04T04:39:51;10.95;;;1.60;;
43998;SDS011;51319;52.162;5.302;2023-03-04T04:42:20;12.95;;;1.98;;
43998;SDS011;51319;52.162;5.302;2023-03-04T04:44:48;6.47;;;1.40;;
43998;SDS011;51319;52.162;5.302;2023-03-04T04:47:15;16.20;;;1.77;;
43998;SDS011;51319;52.162;5.302;2023-03-04T04:49:41;9.65;;;1.90;;
43998;SDS011;51319;52.162;5.302;2023-03-04T04:52:09;13.02;;;2.00;;
43998;SDS011;51319;52.162;5.302;2023-03-04T04:54:36;15.35;;;2.25;;
43998;SDS011;51319;52.162;5.302;2023-03-04T04:57:02;14.35;;;1.92;;
43998;SDS011;51319;52.162;5.302;2023-03-04T04:59:29;14.88;;;2.20;;
43998;SDS011;51319;52.162;5.302;2023-03-04T05:01:56;13.57;;;2.33;;
43998;SDS011;51319;52.162;5.302;2023-03-04T05:04:23;29.55;;;3.40;;
43998;SDS011;51319;52.162;5.302;2023-03-04T05:06:50;15.57;;;1.65;;
43998;SDS011;51319;52.162;5.302;2023-03-04T05:09:17;17.98;;;1.95;;
43998;SDS011;51319;52.162;5.302;2023-03-04T05:11:44;26.13;;;2.35;;
43998;SDS011;51319;52.162;5.302;2023-03-04T05:14:11;20.10;;;2.95;;
43998;SDS011;51319;52.162;5.302;2023-03-04T05:16:38;14.60;;;2.22;;
43998;SDS011;51319;52.162;5.302;2023-03-04T05:19:05;9.75;;;1.65;;
43998;SDS011;51319;52.162;5.302;2023-03-04T05:21:32;13.02;;;2.47;;
43998;SDS011;51319;52.162;5.302;2023-03-04T05:23:58;11.35;;;1.98;;
43998;SDS011;51319;52.162;5.302;2023-03-04T05:26:25;15.80;;;1.90;;
43998;SDS011;51319;52.162;5.302;2023-03-04T05:28:52;16.33;;;2.25;;
43998;SDS011;51319;52.162;5.302;2023-03-04T05:31:19;14.10;;;1.70;;
43998;SDS011;51319;52.162;5.302;2023-03-04T05:33:46;13.13;;;2.85;;
43998;SDS011;51319;52.162;5.302;2023-03-04T05:36:13;12.95;;;2.00;;
43998;SDS011;51319;52.162;5.302;2023-03-04T05:38:40;15.10;;;2.58;;
43998;SDS011;51319;52.162;5.302;2023-03-04T05:41:06;12.57;;;1.70;;
43998;SDS011;51319;52.162;5.302;2023-03-04T05:43:34;14.38;;;2.08;;
43998;SDS011;51319;52.162;5.302;2023-03-04T05:46:01;15.93;;;1.67;;
43998;SDS011;51319;52.162;5.302;2023-03-04T05:48:29;18.77;;;2.05;;
43998;SDS011;51319;52.162;5.302;2023-03-04T05:50:57;20.38;;;2.70;;
43998;SDS011;51319;52.162;5.302;2023-03-04T05:53:26;18.38;;;2.15;;
43998;SDS011;51319;52.162;5.302;2023-03-04T05:55:53;13.10;;;2.00;;
43998;SDS011;51319;52.162;5.302;2023-03-04T05:58:22;15.02;;;3.38;;
43998;SDS011;51319;52.162;5.302;2023-03-04T06:00:49;10.82;;;2.35;;
43998;SDS011;51319;52.162;5.302;2023-03-04T06:03:20;21.48;;;3.53;;
43998;SDS011;51319;52.162;5.302;2023-03-04T06:08:14;19.58;;;2.53;;
43998;SDS011;51319;52.162;5.302;2023-03-04T06:10:41;10.57;;;1.85;;
43998;SDS011;51319;52.162;5.302;2023-03-04T06:13:08;17.48;;;3.85;;
43998;SDS011;51319;52.162;5.302;2023-03-04T06:15:35;10.75;;;1.75;;
43998;SDS011;51319;52.162;5.302;2023-03-04T06:18:03;15.82;;;1.98;;
43998;SDS011;51319;52.162;5.302;2023-03-04T06:20:31;13.73;;;2.75;;
43998;SDS011;51319;52.162;5.302;2023-03-04T06:22:58;14.90;;;2.80;;
43998;SDS011;51319;52.162;5.302;2023-03-04T06:25:25;16.00;;;1.90;;
43998;SDS011;51319;52.162;5.302;2023-03-04T06:27:52;15.23;;;2.25;;
43998;SDS011;51319;52.162;5.302;2023-03-04T06:30:21;8.48;;;1.77;;
43998;SDS011;51319;52.162;5.302;2023-03-04T06:32:49;14.82;;;2.42;;
43998;SDS011;51319;52.162;5.302;2023-03-04T06:35:15;17.25;;;2.40;;
43998;SDS011;51319;52.162;5.302;2023-03-04T06:37:42;14.88;;;2.20;;
43998;SDS011;51319;52.162;5.302;2023-03-04T06:40:09;16.15;;;2.22;;
43998;SDS011;51319;52.162;5.302;2023-03-04T06:42:37;11.43;;;1.73;;
43998;SDS011;51319;52.162;5.302;2023-03-04T06:45:05;17.20;;;3.17;;
43998;SDS011;51319;52.162;5.302;2023-03-04T06:47:33;20.67;;;2.63;;
43998;SDS011;51319;52.162;5.302;2023-03-04T06:50:00;16.27;;;1.95;;
43998;SDS011;51319;52.162;5.302;2023-03-04T06:52:28;9.82;;;1.55;;
43998;SDS011;51319;52.162;5.302;2023-03-04T06:54:55;15.48;;;4.93;;
43998;SDS011;51319;52.162;5.302;2023-03-04T06:57:22;16.38;;;2.10;;
43998;SDS011;51319;52.162;5.302;2023-03-04T06:59:49;10.73;;;1.75;;
43998;SDS011;51319;52.162;5.302;2023-03-04T07:02:16;16.38;;;2.17;;
43998;SDS011;51319;52.162;5.302;2023-03-04T07:04:42;19.35;;;2.25;;
43998;SDS011;51319;52.162;5.302;2023-03-04T07:07:09;16.88;;;1.75;;
43998;SDS011;51319;52.162;5.302;2023-03-04T07:09:36;11.20;;;1.98;;
43998;SDS011;51319;52.162;5.302;2023-03-04T07:12:03;9.68;;;2.20;;
43998;SDS011;51319;52.162;5.302;2023-03-04T07:14:30;14.52;;;2.45;;
43998;SDS011;51319;52.162;5.302;2023-03-04T07:16:57;11.18;;;1.70;;
43998;SDS011;51319;52.162;5.302;2023-03-04T07:19:24;20.70;;;2.25;;
43998;SDS011;51319;52.162;5.302;2023-03-04T07:21:51;11.80;;;1.90;;
43998;SDS011;51319;52.162;5.302;2023-03-04T07:24:18;11.15;;;1.75;;
43998;SDS011;51319;52.162;5.302;2023-03-04T07:26:45;17.88;;;3.45;;
43998;SDS011;51319;52.162;5.302;2023-03-04T07:29:12;11.02;;;2.38;;
43998;SDS011;51319;52.162;5.302;2023-03-04T07:31:38;7.78;;;1.95;;
43998;SDS011;51319;52.162;5.302;2023-03-04T07:34:08;10.90;;;1.88;;
43998;SDS011;51319;52.162;5.302;2023-03-04T07:36:37;11.10;;;2.13;;
43998;SDS011;51319;52.162;5.302;2023-03-04T07:39:05;9.80;;;1.85;;
43998;SDS011;51319;52.162;5.302;2023-03-04T07:41:32;10.85;;;2.03;;
43998;SDS011;51319;52.162;5.302;2023-03-04T07:44:02;8.10;;;2.10;;
43998;SDS011;51319;52.162;5.302;2023-03-04T07:46:31;8.77;;;1.73;;
43998;SDS011;51319;52.162;5.302;2023-03-04T07:48:58;9.45;;;1.90;;
43998;SDS011;51319;52.162;5.302;2023-03-04T07:51:25;19.60;;;2.92;;
43998;SDS011;51319;52.162;5.302;2023-03-04T07:53:54;9.35;;;2.00;;
43998;SDS011;51319;52.162;5.302;2023-03-04T07:56:24;5.85;;;1.50;;
43998;SDS011;51319;52.162;5.302;2023-03-04T07:58:52;11.43;;;2.17;;
43998;SDS011;51319;52.162;5.302;2023-03-04T08:01:23;8.43;;;1.55;;
43998;SDS011;51319;52.162;5.302;2023-03-04T08:03:51;12.05;;;1.50;;
43998;SDS011;51319;52.162;5.302;2023-03-04T08:06:19;10.63;;;1.65;;
43998;SDS011;51319;52.162;5.302;2023-03-04T08:08:47;7.45;;;1.55;;
43998;SDS011;51319;52.162;5.302;2023-03-04T08:11:16;7.80;;;1.30;;
43998;SDS011;51319;52.162;5.302;2023-03-04T08:13:46;3.85;;;1.55;;
43998;SDS011;51319;52.162;5.302;2023-03-04T08:16:14;7.93;;;1.65;;
43998;SDS011;51319;52.162;5.302;2023-03-04T08:18:43;8.35;;;1.40;;
43998;SDS011;51319;52.162;5.302;2023-03-04T08:21:11;7.40;;;1.83;;
43998;SDS011;51319;52.162;5.302;2023-03-04T08:23:40;8.55;;;2.53;;
43998;SDS011;51319;52.162;5.302;2023-03-04T08:26:08;7.63;;;1.75;;
43998;SDS011;51319;52.162;5.302;2023-03-04T08:28:37;9.55;;;2.78;;
43998;SDS011;51319;52.162;5.302;2023-03-04T08:31:05;6.82;;;1.20;;
43998;SDS011;51319;52.162;5.302;2023-03-04T08:33:32;5.85;;;1.55;;
43998;SDS011;51319;52.162;5.302;2023-03-04T08:36:00;5.53;;;1.42;;
43998;SDS011;51319;52.162;5.302;2023-03-04T08:38:26;6.20;;;1.20;;
43998;SDS011;51319;52.162;5.302;2023-03-04T08:40:54;6.65;;;1.42;;
43998;SDS011;51319;52.162;5.302;2023-03-04T08:43:22;6.82;;;1.20;;
43998;SDS011;51319;52.162;5.302;2023-03-04T08:45:51;2.80;;;1.30;;
43998;SDS011;51319;52.162;5.302;2023-03-04T08:48:19;7.70;;;1.30;;
43998;SDS011;51319;52.162;5.302;2023-03-04T08:50:47;3.88;;;1.20;;
43998;SDS011;51319;52.162;5.302;2023-03-04T08:53:14;7.28;;;1.20;;
43998;SDS011;51319;52.162;5.302;2023-03-04T08:55:43;8.05;;;2.10;;
43998;SDS011;51319;52.162;5.302;2023-03-04T08:58:10;7.22;;;1.73;;
43998;SDS011;51319;52.162;5.302;2023-03-04T09:00:39;7.68;;;2.25;;
43998;SDS011;51319;52.162;5.302;2023-03-04T09:03:10;22.40;;;11.07;;
43998;SDS011;51319;52.162;5.302;2023-03-04T09:05:39;12.30;;;3.88;;
43998;SDS011;51319;52.162;5.302;2023-03-04T09:08:06;12.07;;;5.80;;
43998;SDS011;51319;52.162;5.302;2023-03-04T09:10:33;5.32;;;1.48;;
43998;SDS011;51319;52.162;5.302;2023-03-04T09:13:00;3.85;;;1.30;;
43998;SDS011;51319;52.162;5.302;2023-03-04T09:15:27;5.90;;;1.40;;
43998;SDS011;51319;52.162;5.302;2023-03-04T09:17:54;6.63;;;1.50;;
43998;SDS011;51319;52.162;5.302;2023-03-04T09:20:21;4.75;;;1.50;;
43998;SDS011;51319;52.162;5.302;2023-03-04T09:22:48;5.40;;;1.60;;
43998;SDS011;51319;52.162;5.302;2023-03-04T09:25:15;4.20;;;1.02;;
43998;SDS011;51319;52.162;5.302;2023-03-04T09:27:42;7.30;;;1.42;;
43998;SDS011;51319;52.162;5.302;2023-03-04T09:30:09;5.65;;;1.75;;
43998;SDS011;51319;52.162;5.302;2023-03-04T09:32:37;5.85;;;1.58;;
43998;SDS011;51319;52.162;5.302;2023-03-04T09:35:04;8.32;;;1.42;;
43998;SDS011;51319;52.162;5.302;2023-03-04T09:37:31;7.93;;;2.22;;
43998;SDS011;51319;52.162;5.302;2023-03-04T09:39:58;6.15;;;2.08;;
43998;SDS011;51319;52.162;5.302;2023-03-04T09:42:36;5.13;;;1.08;;
43998;SDS011;51319;52.162;5.302;2023-03-04T09:45:10;5.60;;;1.30;;
43998;SDS011;51319;52.162;5.302;2023-03-04T09:47:42;6.47;;;1.70;;
43998;SDS011;51319;52.162;5.302;2023-03-04T09:50:18;2.45;;;1.00;;
43998;SDS011;51319;52.162;5.302;2023-03-04T09:55:34;4.57;;;1.27;;
43998;SDS011;51319;52.162;5.302;2023-03-04T10:00:55;5.50;;;0.90;;
43998;SDS011;51319;52.162;5.302;2023-03-04T10:06:17;1.65;;;0.60;;
43998;SDS011;51319;52.162;5.302;2023-03-04T10:09:03;7.25;;;1.00;;
43998;SDS011;51319;52.162;5.302;2023-03-04T10:11:58;3.75;;;1.00;;
43998;SDS011;51319;52.162;5.302;2023-03-04T10:14:45;2.85;;;1.17;;
43998;SDS011;51319;52.162;5.302;2023-03-04T10:19:56;5.15;;;1.25;;
43998;SDS011;51319;52.162;5.302;2023-03-04T10:23:18;3.28;;;1.00;;
43998;SDS011;51319;52.162;5.302;2023-03-04T10:25:33;6.50;;;1.48;;
43998;SDS011;51319;52.162;5.302;2023-03-04T10:28:10;6.18;;;1.08;;
43998;SDS011;51319;52.162;5.302;2023-03-04T10:31:01;8.82;;;1.35;;
43998;SDS011;51319;52.162;5.302;2023-03-04T10:33:29;5.53;;;1.20;;
43998;SDS011;51319;52.162;5.302;2023-03-04T10:38:31;3.85;;;1.30;;
43998;SDS011;51319;52.162;5.302;2023-03-04T10:41:21;4.30;;;0.88;;
43998;SDS011;51319;52.162;5.302;2023-03-04T10:44:01;4.03;;;1.25;;
43998;SDS011;51319;52.162;5.302;2023-03-04T10:46:40;3.65;;;1.00;;
43998;SDS011;51319;52.162;5.302;2023-03-04T10:51:42;2.28;;;0.60;;
43998;SDS011;51319;52.162;5.302;2023-03-04T10:54:28;3.92;;;0.60;;
43998;SDS011;51319;52.162;5.302;2023-03-04T10:56:57;3.92;;;1.00;;
43998;SDS011;51319;52.162;5.302;2023-03-04T10:59:39;3.88;;;1.02;;
43998;SDS011;51319;52.162;5.302;2023-03-04T11:02:20;4.18;;;0.73;;
43998;SDS011;51319;52.162;5.302;2023-03-04T11:07:58;5.65;;;1.17;;
43998;SDS011;51319;52.162;5.302;2023-03-04T11:10:40;6.57;;;0.80;;
43998;SDS011;51319;52.162;5.302;2023-03-04T11:13:26;1.70;;;1.05;;
43998;SDS011;51319;52.162;5.302;2023-03-04T11:15:54;6.25;;;3.17;;
43998;SDS011;51319;52.162;5.302;2023-03-04T11:21:14;2.10;;;0.80;;
43998;SDS011;51319;52.162;5.302;2023-03-04T11:26:18;3.95;;;1.08;;
43998;SDS011;51319;52.162;5.302;2023-03-04T11:40:25;7.70;;;1.52;;
43998;SDS011;51319;52.162;5.302;2023-03-04T11:43:05;9.52;;;2.20;;
43998;SDS011;51319;52.162;5.302;2023-03-04T11:48:44;12.48;;;3.15;;
43998;SDS011;51319;52.162;5.302;2023-03-04T11:51:21;11.48;;;2.22;;
43998;SDS011;51319;52.162;5.302;2023-03-04T11:54:04;6.20;;;1.83;;
43998;SDS011;51319;52.162;5.302;2023-03-04T11:57:02;11.02;;;1.88;;
43998;SDS011;51319;52.162;5.302;2023-03-04T12:14:16;10.07;;;1.73;;
43998;SDS011;51319;52.162;5.302;2023-03-04T12:23:08;11.57;;;2.65;;
43998;SDS011;51319;52.162;5.302;2023-03-04T12:26:09;15.43;;;2.65;;
43998;SDS011;51319;52.162;5.302;2023-03-04T12:28:48;17.85;;;2.92;;
43998;SDS011;51319;52.162;5.302;2023-03-04T12:31:40;14.60;;;3.13;;
43998;SDS011;51319;52.162;5.302;2023-03-04T12:37:03;11.65;;;2.55;;
43998;SDS011;51319;52.162;5.302;2023-03-04T12:42:33;16.73;;;3.15;;
43998;SDS011;51319;52.162;5.302;2023-03-04T12:45:27;12.82;;;2.42;;
43998;SDS011;51319;52.162;5.302;2023-03-04T12:48:35;18.95;;;2.70;;
43998;SDS011;51319;52.162;5.302;2023-03-04T12:54:04;9.40;;;2.13;;
43998;SDS011;51319;52.162;5.302;2023-03-04T12:56:43;16.80;;;2.47;;
43998;SDS011;51319;52.162;5.302;2023-03-04T13:01:59;17.23;;;2.88;;
43998;SDS011;51319;52.162;5.302;2023-03-04T13:16:37;16.10;;;2.92;;
43998;SDS011;51319;52.162;5.302;2023-03-04T13:28:28;16.33;;;3.20;;
43998;SDS011;51319;52.162;5.302;2023-03-04T13:36:24;14.55;;;3.15;;
43998;SDS011;51319;52.162;5.302;2023-03-04T13:39:02;13.93;;;3.22;;
43998;SDS011;51319;52.162;5.302;2023-03-04T13:41:51;18.80;;;3.10;;
43998;SDS011;51319;52.162;5.302;2023-03-04T13:47:13;14.93;;;3.58;;
43998;SDS011;51319;52.162;5.302;2023-03-04T13:49:43;17.50;;;3.45;;
43998;SDS011;51319;52.162;5.302;2023-03-04T13:57:58;19.63;;;3.55;;
43998;SDS011;51319;52.162;5.302;2023-03-04T14:00:26;16.40;;;2.92;;
43998;SDS011;51319;52.162;5.302;2023-03-04T14:02:54;8.20;;;1.95;;
43998;SDS011;51319;52.162;5.302;2023-03-04T14:05:21;10.88;;;2.60;;
43998;SDS011;51319;52.162;5.302;2023-03-04T14:07:48;10.60;;;2.38;;
43998;SDS011;51319;52.162;5.302;2023-03-04T14:12:43;11.27;;;1.83;;
43998;SDS011;51319;52.162;5.302;2023-03-04T14:17:48;21.33;;;2.40;;
43998;SDS011;51319;52.162;5.302;2023-03-04T14:23:03;6.68;;;1.80;;
43998;SDS011;51319;52.162;5.302;2023-03-04T14:34:04;4.80;;;1.75;;
43998;SDS011;51319;52.162;5.302;2023-03-04T14:36:32;12.93;;;2.40;;
43998;SDS011;51319;52.162;5.302;2023-03-04T14:39:03;6.78;;;1.10;;
43998;SDS011;51319;52.162;5.302;2023-03-04T14:41:33;8.68;;;1.38;;
43998;SDS011;51319;52.162;5.302;2023-03-04T14:46:56;6.88;;;1.50;;
43998;SDS011;51319;52.162;5.302;2023-03-04T14:49:36;9.32;;;1.80;;
43998;SDS011;51319;52.162;5.302;2023-03-04T14:52:05;6.88;;;1.65;;
43998;SDS011;51319;52.162;5.302;2023-03-04T14:54:36;8.55;;;1.33;;
43998;SDS011;51319;52.162;5.302;2023-03-04T14:57:22;10.35;;;1.38;;
43998;SDS011;51319;52.162;5.302;2023-03-04T14:59:52;8.73;;;1.65;;
43998;SDS011;51319;52.162;5.302;2023-03-04T15:05:25;6.25;;;1.58;;
43998;SDS011;51319;52.162;5.302;2023-03-04T15:07:55;9.43;;;0.95;;
43998;SDS011;51319;52.162;5.302;2023-03-04T15:10:25;6.75;;;1.30;;
43998;SDS011;51319;52.162;5.302;2023-03-04T15:12:55;8.95;;;1.23;;
43998;SDS011;51319;52.162;5.302;2023-03-04T15:15:31;4.88;;;1.70;;
43998;SDS011;51319;52.162;5.302;2023-03-04T15:18:03;9.15;;;1.23;;
43998;SDS011;51319;52.162;5.302;2023-03-04T15:20:41;6.18;;;1.30;;
43998;SDS011;51319;52.162;5.302;2023-03-04T15:23:17;12.05;;;1.40;;
43998;SDS011;51319;52.162;5.302;2023-03-04T15:25:44;4.90;;;1.48;;
43998;SDS011;51319;52.162;5.302;2023-03-04T15:28:17;6.53;;;1.60;;
43998;SDS011;51319;52.162;5.302;2023-03-04T15:30:44;8.75;;;1.13;;
43998;SDS011;51319;52.162;5.302;2023-03-04T15:33:12;7.90;;;1.58;;
43998;SDS011;51319;52.162;5.302;2023-03-04T15:35:39;3.35;;;1.08;;
43998;SDS011;51319;52.162;5.302;2023-03-04T15:38:14;7.40;;;1.60;;
43998;SDS011;51319;52.162;5.302;2023-03-04T15:40:41;7.50;;;1.27;;
43998;SDS011;51319;52.162;5.302;2023-03-04T15:43:18;10.20;;;1.27;;
43998;SDS011;51319;52.162;5.302;2023-03-04T15:45:47;7.15;;;1.48;;
43998;SDS011;51319;52.162;5.302;2023-03-04T15:48:15;7.38;;;1.77;;
43998;SDS011;51319;52.162;5.302;2023-03-04T15:53:31;12.20;;;1.50;;
43998;SDS011;51319;52.162;5.302;2023-03-04T15:56:03;6.07;;;1.20;;
43998;SDS011;51319;52.162;5.302;2023-03-04T15:58:33;4.43;;;1.77;;
43998;SDS011;51319;52.162;5.302;2023-03-04T16:01:00;8.18;;;1.60;;
43998;SDS011;51319;52.162;5.302;2023-03-04T16:03:30;8.05;;;1.52;;
43998;SDS011;51319;52.162;5.302;2023-03-04T16:05:58;23.67;;;5.57;;
43998;SDS011;51319;52.162;5.302;2023-03-04T16:08:25;10.82;;;2.03;;
43998;SDS011;51319;52.162;5.302;2023-03-04T16:10:52;10.40;;;1.70;;
43998;SDS011;51319;52.162;5.302;2023-03-04T16:13:20;9.15;;;2.30;;
43998;SDS011;51319;52.162;5.302;2023-03-04T16:15:49;10.30;;;1.98;;
43998;SDS011;51319;52.162;5.302;2023-03-04T16:18:19;9.97;;;1.90;;
43998;SDS011;51319;52.162;5.302;2023-03-04T16:20:48;16.60;;;3.03;;
43998;SDS011;51319;52.162;5.302;2023-03-04T16:23:21;10.10;;;2.10;;
43998;SDS011;51319;52.162;5.302;2023-03-04T16:25:51;6.72;;;1.50;;
43998;SDS011;51319;52.162;5.302;2023-03-04T16:28:21;6.80;;;1.52;;
43998;SDS011;51319;52.162;5.302;2023-03-04T16:30:50;13.23;;;1.92;;
43998;SDS011;51319;52.162;5.302;2023-03-04T16:33:17;12.18;;;1.95;;
43998;SDS011;51319;52.162;5.302;2023-03-04T16:35:44;9.77;;;2.13;;
43998;SDS011;51319;52.162;5.302;2023-03-04T16:38:30;6.70;;;1.58;;
43998;SDS011;51319;52.162;5.302;2023-03-04T16:40:59;8.20;;;1.80;;
43998;SDS011;51319;52.162;5.302;2023-03-04T16:43:27;8.65;;;2.10;;
43998;SDS011;51319;52.162;5.302;2023-03-04T16:45:54;9.40;;;1.92;;
43998;SDS011;51319;52.162;5.302;2023-03-04T16:48:21;9.82;;;2.72;;
43998;SDS011;51319;52.162;5.302;2023-03-04T16:50:48;11.30;;;2.58;;
43998;SDS011;51319;52.162;5.302;2023-03-04T16:53:22;13.82;;;3.22;;
43998;SDS011;51319;52.162;5.302;2023-03-04T16:56:05;12.05;;;2.53;;
43998;SDS011;51319;52.162;5.302;2023-03-04T17:03:54;14.30;;;2.50;;
43998;SDS011;51319;52.162;5.302;2023-03-04T17:06:22;13.82;;;3.40;;
43998;SDS011;51319;52.162;5.302;2023-03-04T17:08:49;15.82;;;3.83;;
43998;SDS011;51319;52.162;5.302;2023-03-04T17:11:18;27.08;;;9.25;;
43998;SDS011;51319;52.162;5.302;2023-03-04T17:13:47;20.08;;;4.53;;
43998;SDS011;51319;52.162;5.302;2023-03-04T17:16:14;14.40;;;3.33;;
43998;SDS011;51319;52.162;5.302;2023-03-04T17:18:42;17.05;;;3.72;;
43998;SDS011;51319;52.162;5.302;2023-03-04T17:21:13;15.55;;;4.07;;